Terminal Aerodrome Forecast
Issued by NWS

Home | Current Version | Previous Version | Graphics & Text | Print | Product List | Glossary On
Versions: 1 2 3 4 5 6 7 8 9 10 11 12 13 14 15 16 17 18
000
FTUS43 KABR 272100 AAA
TAFATY
TAF AMD
KATY 272143Z 2722/2818 16013KT P6SM FEW008 FEW250
     FM280000 16008KT P6SM FEW005
      TEMPO 2802/2806 1SM BR BKN003
     FM280600 16007KT 1SM BR OVC003=

USA.gov is the U.S. government's official web portal to all federal, state and local government web resources and services.